createdAt,value
2022-09-02T00:02:12.586Z,100.00
2022-09-02T00:04:40.766Z,100.00
2022-09-02T00:07:08.960Z,100.00
2022-09-02T00:09:40.470Z,100.00
2022-09-02T00:12:10.688Z,100.00
2022-09-02T00:14:39.750Z,100.00
2022-09-02T00:17:07.961Z,100.00
2022-09-02T00:19:38.394Z,100.00
2022-09-02T00:22:06.480Z,100.00
2022-09-02T00:24:34.521Z,100.00
2022-09-02T00:27:05.415Z,100.00
2022-09-02T00:29:33.483Z,100.00
2022-09-02T00:32:01.784Z,100.00
2022-09-02T00:34:29.838Z,100.00
2022-09-02T00:36:58.031Z,100.00
2022-09-02T00:39:27.192Z,100.00
2022-09-02T00:41:55.586Z,100.00
2022-09-02T00:44:25.647Z,100.00
2022-09-02T00:46:53.724Z,100.00
2022-09-02T00:49:25.618Z,100.00
2022-09-02T00:51:58.487Z,100.00
2022-09-02T00:54:29.181Z,100.00
2022-09-02T00:56:57.913Z,100.00
2022-09-02T00:59:33.062Z,100.00
2022-09-02T01:02:01.258Z,100.00
2022-09-02T01:04:29.347Z,100.00
2022-09-02T01:06:57.439Z,100.00
2022-09-02T01:09:25.530Z,100.00
2022-09-02T01:11:53.622Z,100.00
2022-09-02T01:14:22.425Z,100.00
2022-09-02T01:16:55.271Z,100.00
2022-09-02T01:19:26.813Z,100.00
2022-09-02T01:21:58.087Z,100.00
2022-09-02T01:24:30.471Z,100.00
2022-09-02T01:27:00.169Z,100.00
2022-09-02T01:29:29.694Z,100.00
2022-09-02T01:31:57.899Z,100.00
2022-09-02T01:34:26.990Z,100.00
2022-09-02T01:36:56.600Z,100.00
2022-09-02T01:39:25.076Z,100.00
2022-09-02T01:41:53.652Z,100.00
2022-09-02T01:44:21.770Z,100.00
2022-09-02T01:46:51.369Z,100.00
2022-09-02T01:49:19.596Z,100.00
2022-09-02T01:51:49.129Z,100.00
2022-09-02T01:54:18.689Z,100.00
2022-09-02T01:56:47.545Z,100.00
2022-09-02T01:59:18.037Z,100.00
2022-09-02T02:01:46.928Z,100.00
2022-09-02T02:04:17.032Z,100.00
2022-09-02T02:06:47.451Z,100.00
2022-09-02T02:09:22.289Z,100.00
2022-09-02T02:11:52.416Z,100.00
2022-09-02T02:14:20.695Z,100.00
2022-09-02T02:16:51.617Z,100.00
2022-09-02T02:19:19.779Z,100.00
2022-09-02T02:21:49.950Z,100.00
2022-09-02T02:24:18.293Z,100.00
2022-09-02T02:26:48.437Z,100.00
2022-09-02T02:29:19.102Z,100.00
2022-09-02T02:31:47.723Z,100.00
2022-09-02T02:34:16.062Z,100.00
2022-09-02T02:36:45.060Z,100.00
2022-09-02T02:39:14.016Z,100.00
2022-09-02T02:41:44.916Z,100.00
2022-09-02T02:44:15.216Z,100.00
2022-09-02T02:46:43.590Z,100.00
2022-09-02T02:49:12.713Z,100.00
2022-09-02T02:51:42.050Z,100.00
2022-09-02T02:54:10.468Z,100.00
2022-09-02T02:56:39.623Z,100.00
2022-09-02T02:59:08.250Z,100.00
2022-09-02T03:01:37.722Z,100.00
2022-09-02T03:04:06.855Z,100.00
2022-09-02T03:06:35.818Z,100.00
2022-09-02T03:09:06.040Z,100.00
2022-09-02T03:11:36.047Z,100.00
2022-09-02T03:14:05.153Z,100.00
2022-09-02T03:16:37.099Z,100.00
2022-09-02T03:19:05.095Z,100.00
2022-09-02T03:21:38.982Z,100.00
2022-09-02T03:24:08.872Z,100.00
2022-09-02T03:26:37.127Z,100.00
2022-09-02T03:29:05.707Z,100.00
2022-09-02T03:31:34.182Z,100.00
2022-09-02T03:34:04.674Z,100.00
2022-09-02T03:36:35.278Z,100.00
2022-09-02T03:39:05.039Z,100.00
2022-09-02T03:41:38.079Z,100.00
2022-09-02T03:44:06.091Z,100.00
2022-09-02T03:46:35.290Z,100.00
2022-09-02T03:49:05.791Z,100.00
2022-09-02T03:51:34.237Z,100.00
2022-09-02T03:54:04.072Z,100.00
2022-09-02T03:56:32.590Z,100.00
2022-09-02T03:59:01.172Z,100.00
2022-09-02T04:01:35.057Z,100.00
2022-09-02T04:04:06.971Z,100.00
2022-09-02T04:06:36.888Z,100.00
2022-09-02T04:09:06.214Z,100.00
2022-09-02T04:11:35.194Z,100.00
2022-09-02T04:14:03.230Z,100.00
2022-09-02T04:16:32.701Z,100.00
2022-09-02T04:19:06.899Z,100.00
2022-09-02T04:21:36.845Z,100.00
2022-09-02T04:24:05.793Z,100.00
2022-09-02T04:26:34.697Z,100.00
2022-09-02T04:29:03.300Z,100.00
2022-09-02T04:31:35.665Z,100.00
2022-09-02T04:34:06.903Z,100.00
2022-09-02T04:36:35.958Z,100.00
2022-09-02T04:39:09.434Z,100.00
2022-09-02T04:41:39.041Z,100.00
2022-09-02T04:44:11.010Z,100.00
2022-09-02T04:46:42.429Z,100.00
2022-09-02T04:49:16.617Z,100.00
2022-09-02T04:51:46.151Z,100.00
2022-09-02T04:54:15.231Z,100.00
2022-09-02T04:56:46.763Z,100.00
2022-09-02T04:59:15.455Z,100.00
2022-09-02T05:01:51.781Z,100.00
2022-09-02T05:04:26.222Z,100.00
2022-09-02T05:06:55.791Z,100.00
2022-09-02T05:09:24.329Z,100.00
2022-09-02T05:11:59.638Z,100.00
2022-09-02T05:14:33.612Z,100.00
2022-09-02T05:17:07.851Z,100.00
2022-09-02T05:19:41.154Z,100.00
2022-09-02T05:22:10.400Z,100.00
2022-09-02T05:24:42.254Z,100.00
2022-09-02T05:27:16.116Z,100.00
2022-09-02T05:29:45.763Z,100.00
2022-09-02T05:32:17.615Z,100.00
2022-09-02T05:34:49.805Z,100.00
2022-09-02T05:37:18.616Z,100.00
2022-09-02T05:39:48.041Z,100.00
2022-09-02T05:42:19.690Z,100.00
2022-09-02T05:44:50.032Z,100.00
2022-09-02T05:47:21.220Z,100.00
2022-09-02T05:49:51.213Z,100.00
2022-09-02T05:52:19.439Z,100.00
2022-09-02T05:54:50.756Z,100.00
2022-09-02T05:57:22.392Z,100.00
2022-09-02T06:00:11.415Z,100.00
2022-09-02T06:02:52.641Z,100.00
2022-09-02T06:05:37.334Z,100.00
2022-09-02T06:08:14.381Z,100.00
2022-09-02T06:10:44.682Z,100.00
2022-09-02T06:13:21.493Z,100.00
2022-09-02T06:15:51.672Z,100.00
2022-09-02T06:18:21.018Z,100.00
2022-09-02T06:20:53.293Z,100.00
2022-09-02T06:23:21.635Z,100.00
2022-09-02T06:25:50.985Z,100.00
2022-09-02T06:28:20.534Z,100.00
2022-09-02T06:30:50.535Z,100.00
2022-09-02T06:33:23.326Z,100.00
2022-09-02T06:35:53.924Z,100.00
2022-09-02T06:38:22.100Z,100.00
2022-09-02T06:40:52.600Z,100.00
2022-09-02T06:43:28.470Z,100.00
2022-09-02T06:46:20.494Z,100.00
2022-09-02T06:48:50.940Z,100.00
2022-09-02T06:51:24.695Z,100.00
2022-09-02T06:53:53.710Z,100.00
2022-09-02T06:56:24.084Z,100.00
2022-09-02T06:58:52.874Z,100.00
2022-09-02T07:01:23.513Z,100.00
2022-09-02T07:04:09.440Z,100.00
2022-09-02T07:06:42.523Z,100.00
2022-09-02T07:09:12.676Z,100.00
2022-09-02T07:11:41.147Z,100.00
2022-09-02T07:14:10.455Z,100.00
2022-09-02T07:16:44.057Z,100.00
2022-09-02T07:19:18.548Z,100.00
2022-09-02T07:21:50.797Z,100.00
2022-09-02T07:24:20.635Z,100.00
2022-09-02T07:26:49.325Z,100.00
2022-09-02T07:29:20.888Z,100.00
2022-09-02T07:31:50.096Z,100.00
2022-09-02T07:34:20.417Z,100.00
2022-09-02T07:36:52.632Z,100.00
2022-09-02T07:39:22.545Z,100.00
2022-09-02T07:41:52.786Z,100.00
2022-09-02T07:44:23.812Z,100.00
2022-09-02T07:46:53.938Z,100.00
2022-09-02T07:49:24.223Z,100.00
2022-09-02T07:51:54.286Z,100.00
2022-09-02T07:54:26.203Z,100.00
2022-09-02T07:56:56.256Z,100.00
2022-09-02T07:59:25.855Z,100.00
2022-09-02T08:01:56.777Z,100.00
2022-09-02T08:04:25.575Z,100.00
2022-09-02T08:06:55.781Z,100.00
2022-09-02T08:09:24.125Z,100.00
2022-09-02T08:11:53.470Z,100.00
2022-09-02T08:14:26.038Z,100.00
2022-09-02T08:16:54.923Z,100.00
2022-09-02T08:19:23.751Z,100.00
2022-09-02T08:21:51.854Z,100.00
2022-09-02T08:24:21.215Z,100.00
2022-09-02T08:26:49.264Z,100.00
2022-09-02T08:29:17.860Z,100.00
2022-09-02T08:31:46.990Z,100.00
2022-09-02T08:34:17.057Z,100.00
2022-09-02T08:36:47.585Z,100.00
2022-09-02T08:39:26.878Z,100.00
2022-09-02T08:42:03.855Z,100.00
2022-09-02T08:44:35.176Z,100.00
2022-09-02T08:47:06.884Z,100.00
2022-09-02T08:49:39.332Z,100.00
2022-09-02T08:52:07.729Z,100.00
2022-09-02T08:54:42.963Z,100.00
2022-09-02T08:57:12.022Z,100.00
2022-09-02T09:02:22.624Z,100.00
2022-09-02T09:05:20.281Z,100.00
2022-09-02T09:07:59.729Z,100.00
2022-09-02T09:10:39.250Z,100.00
2022-09-02T09:13:41.578Z,100.00
2022-09-02T09:16:20.674Z,100.00
2022-09-02T09:18:58.399Z,100.00
2022-09-02T09:24:02.488Z,100.00
2022-09-02T09:26:35.785Z,100.00
2022-09-02T09:29:06.106Z,100.00
2022-09-02T09:31:37.306Z,99.43
2022-09-02T09:34:10.127Z,99.60
2022-09-02T09:36:46.433Z,100.00
2022-09-02T09:39:26.698Z,96.46
2022-09-02T09:41:57.800Z,98.01
2022-09-02T09:44:38.539Z,99.17
2022-09-02T09:47:09.477Z,94.88
2022-09-02T09:49:40.291Z,96.06
2022-09-02T09:52:08.353Z,92.47
2022-09-02T09:54:36.388Z,93.74
2022-09-02T09:57:23.114Z,92.51
2022-09-02T09:59:56.076Z,89.96
2022-09-02T10:02:26.360Z,95.08
2022-09-02T10:04:56.514Z,91.12
2022-09-02T10:07:39.593Z,90.20
2022-09-02T10:10:18.542Z,84.77
2022-09-02T10:12:51.934Z,85.09
2022-09-02T10:15:29.429Z,84.58
2022-09-02T10:18:07.004Z,83.64
2022-09-02T10:21:04.912Z,83.03
2022-09-02T10:23:48.526Z,84.31
2022-09-02T10:26:27.166Z,78.72
2022-09-02T10:29:21.953Z,82.37
2022-09-02T10:32:00.666Z,83.95
2022-09-02T10:34:36.044Z,83.14
2022-09-02T10:37:16.762Z,78.73
2022-09-02T10:40:03.238Z,81.79
2022-09-02T10:42:40.989Z,80.58
2022-09-02T10:45:17.836Z,77.35
2022-09-02T10:47:55.148Z,76.37
2022-09-02T10:50:29.077Z,75.71
2022-09-02T10:53:13.433Z,73.43
2022-09-02T10:55:51.028Z,69.49
2022-09-02T10:58:24.225Z,67.10
2022-09-02T11:00:57.788Z,67.29
2022-09-02T11:03:31.691Z,65.42
2022-09-02T11:06:06.851Z,67.52
2022-09-02T11:08:40.227Z,64.43
2022-09-02T11:11:13.450Z,66.18
2022-09-02T11:13:52.368Z,62.22
2022-09-02T11:16:27.018Z,65.62
2022-09-02T11:19:01.510Z,59.49
2022-09-02T11:21:38.246Z,59.95
2022-09-02T11:24:14.403Z,58.43
2022-09-02T11:26:54.632Z,65.52
2022-09-02T11:29:29.502Z,59.31
2022-09-02T11:32:06.984Z,60.45
2022-09-02T11:34:41.179Z,62.62
2022-09-02T11:37:13.943Z,60.96
2022-09-02T11:39:54.448Z,61.71
2022-09-02T11:42:44.392Z,58.50
2022-09-02T11:45:54.643Z,63.98
2022-09-02T11:49:01.680Z,62.97
2022-09-02T11:51:50.430Z,58.84
2022-09-02T11:54:20.977Z,62.01
2022-09-02T11:56:50.222Z,59.09
2022-09-02T11:59:22.812Z,60.88
2022-09-02T12:01:54.045Z,57.96
2022-09-02T12:07:26.459Z,57.32
2022-09-02T12:09:57.966Z,59.18
2022-09-02T12:13:07.987Z,61.09
2022-09-02T12:15:38.500Z,58.26
2022-09-02T12:18:31.168Z,57.95
2022-09-02T12:21:15.964Z,58.60
2022-09-02T12:24:11.454Z,57.98
2022-09-02T12:27:23.391Z,57.77
2022-09-02T12:29:52.287Z,57.19
2022-09-02T12:33:01.959Z,58.73
2022-09-02T12:35:52.632Z,57.09
2022-09-02T12:38:34.102Z,57.30
2022-09-02T12:41:22.849Z,57.50
2022-09-02T12:44:19.388Z,56.50
2022-09-02T12:46:57.344Z,56.40
2022-09-02T12:49:39.214Z,57.24
2022-09-02T12:52:10.642Z,55.21
2022-09-02T12:54:49.176Z,56.92
2022-09-02T12:57:19.477Z,55.45
2022-09-02T13:00:02.923Z,56.19
2022-09-02T13:02:51.991Z,56.72
2022-09-02T13:05:26.690Z,56.01
2022-09-02T13:08:31.693Z,58.63
2022-09-02T13:11:39.360Z,57.30
2022-09-02T13:14:38.934Z,56.37
2022-09-02T13:17:43.012Z,56.57
2022-09-02T13:20:39.929Z,56.50
2022-09-02T13:23:38.798Z,55.12
2022-09-02T13:26:45.500Z,56.89
2022-09-02T13:29:59.224Z,54.84
2022-09-02T13:32:30.395Z,55.53
2022-09-02T13:35:02.052Z,54.52
2022-09-02T13:37:32.776Z,54.84
2022-09-02T13:40:07.106Z,55.59
2022-09-02T13:42:35.264Z,54.40
2022-09-02T13:45:15.842Z,54.77
2022-09-02T13:47:46.021Z,56.06
2022-09-02T13:50:17.234Z,55.07
2022-09-02T13:53:45.199Z,52.57
2022-09-02T13:55:40.539Z,53.60
2022-09-02T13:58:26.578Z,54.05
2022-09-02T14:01:02.047Z,51.73
2022-09-02T14:03:32.811Z,54.16
2022-09-02T14:06:01.889Z,55.27
2022-09-02T14:08:32.600Z,54.17
2022-09-02T14:11:06.967Z,54.61
2022-09-02T14:13:36.872Z,55.55
2022-09-02T14:16:27.686Z,54.96
2022-09-02T14:19:10.480Z,54.92
2022-09-02T14:21:45.128Z,54.92
2022-09-02T14:24:14.155Z,55.64
2022-09-02T14:26:44.906Z,56.86
2022-09-02T14:29:16.673Z,56.39
2022-09-02T14:31:46.746Z,58.63
2022-09-02T14:34:33.773Z,59.53
2022-09-02T14:37:02.597Z,58.79
2022-09-02T14:39:30.707Z,59.55
2022-09-02T14:41:58.916Z,59.64
2022-09-02T14:44:34.023Z,59.78
2022-09-02T14:47:07.394Z,60.43
2022-09-02T14:49:39.969Z,62.40
2022-09-02T14:52:19.075Z,62.31
2022-09-02T14:54:49.712Z,61.95
2022-09-02T14:57:23.100Z,61.43
2022-09-02T14:59:52.501Z,63.47
2022-09-02T15:02:33.254Z,64.91
2022-09-02T15:05:03.158Z,64.86
2022-09-02T15:07:31.361Z,65.22
2022-09-02T15:09:59.881Z,64.74
2022-09-02T15:12:30.758Z,67.02
2022-09-02T15:14:59.369Z,66.00
2022-09-02T15:17:30.715Z,66.90
2022-09-02T15:19:58.762Z,66.30
2022-09-02T15:22:27.266Z,66.70
2022-09-02T15:24:55.498Z,66.82
2022-09-02T15:27:23.638Z,66.02
2022-09-02T15:29:51.657Z,66.95
2022-09-02T15:32:20.241Z,66.80
2022-09-02T15:34:49.687Z,66.22
2022-09-02T15:37:17.864Z,66.44
2022-09-02T15:39:46.103Z,65.42
2022-09-02T15:42:14.839Z,66.43
2022-09-02T15:44:43.009Z,66.21
2022-09-02T15:47:11.148Z,67.21
2022-09-02T15:49:40.203Z,66.33
2022-09-02T15:52:10.131Z,65.39
2022-09-02T15:54:38.321Z,62.01
2022-09-02T15:57:06.743Z,58.93
2022-09-02T15:59:34.997Z,58.66
2022-09-02T16:02:03.565Z,59.56
2022-09-02T16:04:31.647Z,60.24
2022-09-02T16:07:00.242Z,60.54
2022-09-02T16:09:30.137Z,59.69
2022-09-02T16:11:58.414Z,60.78
2022-09-02T16:14:26.932Z,60.65
2022-09-02T16:16:57.385Z,59.56
2022-09-02T16:19:28.737Z,61.70
2022-09-02T16:21:58.739Z,62.58
2022-09-02T16:24:26.902Z,63.31
2022-09-02T16:26:56.514Z,65.44
2022-09-02T16:29:28.174Z,66.55
2022-09-02T16:32:14.382Z,68.00
2022-09-02T16:34:45.485Z,66.64
2022-09-02T16:37:14.527Z,66.57
2022-09-02T16:39:43.169Z,67.74
2022-09-02T16:42:12.751Z,70.02
2022-09-02T16:44:41.831Z,69.93
2022-09-02T16:47:13.860Z,69.42
2022-09-02T16:49:42.313Z,70.74
2022-09-02T16:52:10.780Z,70.50
2022-09-02T16:54:51.811Z,70.24
2022-09-02T16:57:23.998Z,71.53
2022-09-02T16:59:53.020Z,70.96
2022-09-02T17:02:21.279Z,72.16
2022-09-02T17:04:49.498Z,71.78
2022-09-02T17:07:17.741Z,71.75
2022-09-02T17:09:45.775Z,72.00
2022-09-02T17:12:13.987Z,72.50
2022-09-02T17:14:43.575Z,72.14
2022-09-02T17:17:14.940Z,71.26
2022-09-02T17:19:43.204Z,70.32
2022-09-02T17:22:11.248Z,70.51
2022-09-02T17:24:41.973Z,71.49
2022-09-02T17:27:10.178Z,71.89
2022-09-02T17:29:55.197Z,71.63
2022-09-02T17:32:26.155Z,71.97
2022-09-02T17:34:54.555Z,71.33
2022-09-02T17:37:22.954Z,71.10
2022-09-02T17:39:51.313Z,70.73
2022-09-02T17:42:18.933Z,70.62
2022-09-02T17:44:48.568Z,68.75
2022-09-02T17:47:20.119Z,68.82
2022-09-02T17:49:50.337Z,69.28
2022-09-02T17:52:20.243Z,68.86
2022-09-02T17:54:50.638Z,69.08
2022-09-02T17:57:28.314Z,67.75
2022-09-02T18:00:09.691Z,68.95
2022-09-02T18:03:22.573Z,68.21
2022-09-02T18:06:08.507Z,66.23
2022-09-02T18:08:45.891Z,65.65
2022-09-02T18:11:14.542Z,64.55
2022-09-02T18:13:54.290Z,63.56
2022-09-02T18:16:36.800Z,65.25
2022-09-02T18:19:13.591Z,64.85
2022-09-02T18:21:57.891Z,65.07
2022-09-02T18:24:43.211Z,65.73
2022-09-02T18:27:18.118Z,67.48
2022-09-02T18:30:01.651Z,67.39
2022-09-02T18:32:46.055Z,69.77
2022-09-02T18:35:27.056Z,71.52
2022-09-02T18:38:06.646Z,72.05
2022-09-02T18:40:44.364Z,72.91
2022-09-02T18:43:19.940Z,74.90
2022-09-02T18:45:51.503Z,74.56
2022-09-02T18:48:26.529Z,76.32
2022-09-02T18:50:59.670Z,76.87
2022-09-02T18:53:33.396Z,78.43
2022-09-02T18:56:08.271Z,79.54
2022-09-02T18:58:43.694Z,79.82
2022-09-02T19:01:17.669Z,84.35
2022-09-02T19:03:45.893Z,84.20
2022-09-02T19:06:19.176Z,87.94
2022-09-02T19:08:49.305Z,88.31
2022-09-02T19:11:18.754Z,91.89
2022-09-02T19:13:49.239Z,95.11
2022-09-02T19:16:19.746Z,95.79
2022-09-02T19:18:48.470Z,96.92
2022-09-02T19:21:21.297Z,98.29
2022-09-02T19:23:51.313Z,100.00
2022-09-02T19:26:20.033Z,100.00
2022-09-02T19:28:49.439Z,100.00
2022-09-02T19:31:21.995Z,100.00
2022-09-02T19:33:52.818Z,100.00
2022-09-02T19:36:24.182Z,100.00
2022-09-02T19:38:56.596Z,99.21
2022-09-02T19:41:27.668Z,100.00
2022-09-02T19:43:55.829Z,98.79
2022-09-02T19:47:11.921Z,100.00
2022-09-02T19:49:14.308Z,100.00
2022-09-02T19:51:43.378Z,100.00
2022-09-02T19:54:14.776Z,100.00
2022-09-02T19:56:43.327Z,100.00
2022-09-02T19:59:11.964Z,100.00
2022-09-02T20:01:40.137Z,99.08
2022-09-02T20:04:08.349Z,100.00
2022-09-02T20:06:36.443Z,99.71
2022-09-02T20:09:05.981Z,100.00
2022-09-02T20:11:37.101Z,100.00
2022-09-02T20:14:06.761Z,100.00
2022-09-02T20:16:35.020Z,100.00
2022-09-02T20:19:03.293Z,100.00
2022-09-02T20:21:32.988Z,100.00
2022-09-02T20:24:06.083Z,100.00
2022-09-02T20:26:56.356Z,100.00
2022-09-02T20:29:39.465Z,100.00
2022-09-02T20:32:19.113Z,98.65
2022-09-02T20:34:57.374Z,100.00
2022-09-02T20:37:35.925Z,99.68
2022-09-02T20:40:31.965Z,100.00
2022-09-02T20:43:30.210Z,100.00
2022-09-02T20:46:02.918Z,100.00
2022-09-02T20:48:49.175Z,100.00
2022-09-02T20:51:22.775Z,100.00
2022-09-02T20:54:19.880Z,100.00
2022-09-02T20:56:57.484Z,100.00
2022-09-02T20:59:34.216Z,97.39
2022-09-02T21:02:05.847Z,96.35
2022-09-02T21:04:40.154Z,95.75
2022-09-02T21:07:13.955Z,94.08
2022-09-02T21:09:47.622Z,95.14
2022-09-02T21:12:23.376Z,94.70
2022-09-02T21:15:01.168Z,94.96
2022-09-02T21:17:48.456Z,93.22
2022-09-02T21:20:24.428Z,91.43
2022-09-02T21:22:58.288Z,91.04
2022-09-02T21:25:29.714Z,90.11
2022-09-02T21:28:06.189Z,88.77
2022-09-02T21:30:41.274Z,88.03
2022-09-02T21:33:13.224Z,87.01
2022-09-02T21:35:43.475Z,86.41
2022-09-02T21:38:15.322Z,86.68
2022-09-02T21:40:57.956Z,86.37
2022-09-02T21:43:46.629Z,86.14
2022-09-02T21:46:25.692Z,85.68
2022-09-02T21:49:03.278Z,85.46
2022-09-02T21:51:37.412Z,85.03
2022-09-02T21:54:25.071Z,83.54
2022-09-02T21:57:07.211Z,83.87
2022-09-02T21:59:51.353Z,82.60
2022-09-02T22:02:30.173Z,81.40
2022-09-02T22:05:04.452Z,81.81
2022-09-02T22:07:36.662Z,81.53
2022-09-02T22:10:11.332Z,81.88
2022-09-02T22:12:45.259Z,83.70
2022-09-02T22:15:23.248Z,83.21
2022-09-02T22:17:56.299Z,82.99
2022-09-02T22:20:31.812Z,82.76
2022-09-02T22:23:06.043Z,82.72
2022-09-02T22:25:38.146Z,83.80
2022-09-02T22:28:12.416Z,82.52
2022-09-02T22:30:48.405Z,82.73
2022-09-02T22:33:24.068Z,83.09
2022-09-02T22:35:58.244Z,82.49
2022-09-02T22:38:33.829Z,83.04
2022-09-02T22:41:07.621Z,82.62
2022-09-02T22:43:41.945Z,81.93
2022-09-02T22:46:40.809Z,84.35
2022-09-02T22:49:33.276Z,83.17
2022-09-02T22:52:25.205Z,84.38
2022-09-02T22:54:53.739Z,85.53
2022-09-02T22:57:39.696Z,85.82
2022-09-02T23:00:10.371Z,84.62
2022-09-02T23:02:42.713Z,84.92
2022-09-02T23:05:45.221Z,84.59
2022-09-02T23:08:15.665Z,87.45
2022-09-02T23:10:48.438Z,87.70
2022-09-02T23:13:24.601Z,87.54
2022-09-02T23:16:02.163Z,87.49
2022-09-02T23:18:42.103Z,88.38
2022-09-02T23:21:18.639Z,86.14
2022-09-02T23:23:53.294Z,88.16
2022-09-02T23:26:34.013Z,88.22
2022-09-02T23:29:16.545Z,88.14
2022-09-02T23:32:04.566Z,88.07
2022-09-02T23:34:53.956Z,87.57
2022-09-02T23:37:35.013Z,88.62
2022-09-02T23:40:12.632Z,86.64
2022-09-02T23:42:40.774Z,87.99
2022-09-02T23:45:20.233Z,87.83
2022-09-02T23:48:01.513Z,90.46
2022-09-02T23:50:39.301Z,88.89
2022-09-02T23:53:13.084Z,88.49
2022-09-02T23:55:49.151Z,91.00
2022-09-02T23:58:34.509Z,91.92
